EGEC/CAL METAR and TAF weather

Enter ICAO airport designator
Station Type Date Time Source
EGEC METAR 2019/12/11 17:20 UTC NOAA

EGEC 111720Z 25024KT 6000 SHRA SCT012 FEW030CB 05/04 Q0994


Station Type Date Time Source
EGEC Decoded METAR 2019/12/11 17:20 UTC NOAA

Campbeltown, United Kingdom (EGEC) 55-26-14N 005-41-11W
Dec 11, 2019 - 12:20 PM EST / 2019.12.11 1720 UTC
Wind: from the WSW (250 degrees) at 28 MPH (24 KT):0
Visibility: 3 mile(s):0
Sky conditions: partly cloudy
Weather: rain showers; Cumulonimbus clouds observed
Temperature: 41 F (5 C)
Dew Point: 39 F (4 C)
Relative Humidity: 93%
Pressure (altimeter): 29.35 in. Hg (0994 hPa)
ob: EGEC 111720Z 25024KT 6000 SHRA SCT012 FEW030CB 05/04 Q0994
cycle: 17

Station Type Date Time Source
EGEC TAF UTC NOAA

Error!

Example: see airport list